CheckWX is a tool to help pilots better visualize weather data.  It is not intended as a substitute for an official pre-flight weather briefing.

12:43:29 UTC

KOAK TAF
Metropolitan Oakland International Airport
Oakland, California, USA
KOAK 161139Z 1612/1718 29010KT P6SM OVC008 FM161730 29008KT P6SM OVC012 FM162100 29010KT P6SM SCT015 FM162300 29014KT P6SM FEW010 FM170200 29010KT P6SM SCT012 FM170400 29008KT P6SM OVC010

Jun-16@
12:00 UTC

Jun-16 @ 12:00 UTC

Jun-16@
17:30 UTC

Jun-16 @ 17:30 UTC

KOAK 161139Z 1612/1718 29010KT P6SM OVC008
Wind
  • 290° at 10 KTS
Cloud Levels
  • Overcast at 800' AGL

Jun-16@
17:30 UTC

Jun-16 @ 17:30 UTC

Jun-16@
21:00 UTC

Jun-16 @ 21:00 UTC

FM161730 29008KT P6SM OVC012

From

From Standard forecast or significant change

Wind
  • 290° at 8 KTS
Cloud Levels
  • Overcast at 1,200' AGL

Jun-16@
21:00 UTC

Jun-16 @ 21:00 UTC

Jun-16@
23:00 UTC

Jun-16 @ 23:00 UTC

FM162100 29010KT P6SM SCT015

From

From Standard forecast or significant change

Wind
  • 290° at 10 KTS
Cloud Levels
  • Scattered at 1,500' AGL

Jun-16@
23:00 UTC

Jun-16 @ 23:00 UTC

Jun-17@
02:00 UTC

Jun-17 @ 02:00 UTC

FM162300 29014KT P6SM FEW010

From

From Standard forecast or significant change

Wind
  • 290° at 14 KTS
Cloud Levels
  • Few at 1,000' AGL

Jun-17@
02:00 UTC

Jun-17 @ 02:00 UTC

Jun-17@
04:00 UTC

Jun-17 @ 04:00 UTC

FM170200 29010KT P6SM SCT012

From

From Standard forecast or significant change

Wind
  • 290° at 10 KTS
Cloud Levels
  • Scattered at 1,200' AGL

Jun-17@
04:00 UTC

Jun-17 @ 04:00 UTC

Jun-17@
18:00 UTC

Jun-17 @ 18:00 UTC

FM170400 29008KT P6SM OVC010

From

From Standard forecast or significant change

Wind
  • 290° at 8 KTS
Cloud Levels
  • Overcast at 1,000' AGL